Forecasts are only available for sites displaying the forecast symbol.

Some water levels are actually in metres AHD (Australian Height Datum), click individual sites for more details.

Scroll for more >

River gauges, storages, and weirs in the Murray–Darling Basin

Type Locationsort descending River Water level Flow Volume Release Water temp Salinity Rainfall
River Gauge Albury (Union Bridge) Murray 1.31 m 28/07/2021 19:00 Not measured Not measured Not measured 10.0°C 28/07/2021 19:00 67.1 μS/cm 28/07/2021 19:00 Not measured Full data
River Gauge Balranald Murrumbidgee 4.99 m 28/07/2021 18:45 6710 ML/Day 28/07/2021 18:45 Not measured Not measured 10.3°C 28/07/2021 18:45 135.3 μS/cm 28/07/2021 18:45 Not measured Full data
River Gauge Bandiana Kiewa 2.95 m 28/07/2021 18:45 6077 ML/Day 28/07/2021 18:45 Not measured Not measured 10.2°C 28/07/2021 18:45 60.1 μS/cm 28/07/2021 18:45 Not measured Full data
River Gauge Barmah Choke Murray 2.67 m 28/07/2021 18:45 8145 ML/Day 28/07/2021 18:45 Not measured Not measured Not measured Not measured Not measured Full data
River Gauge Biggara Murray 1.56 m 28/07/2021 18:45 5133 ML/Day 28/07/2021 18:45 Not measured Not measured 9.1°C 28/07/2021 19:00 31.0 μS/cm 28/07/2021 19:00 3.8 mm 27/07/2021 9:00 Full data
River Gauge Bringenbrong Bridge Murray 2.26 m 28/07/2021 18:45 9688 ML/Day 28/07/2021 18:45 Not measured Not measured Not measured Not measured Not measured Full data
River Gauge Burtundy Darling 0.86 m 28/07/2021 18:15 454 ML/Day 28/07/2021 18:15 Not measured Not measured 11.4°C 28/07/2021 18:15 298.9 μS/cm 28/07/2021 18:15 Not measured Full data
River Gauge Colemans Mitta 0.89 m 28/07/2021 18:45 188 ML/Day 28/07/2021 18:45 Not measured Not measured 9.3°C 28/07/2021 18:45 51.6 μS/cm 28/07/2021 18:45 Not measured Full data
River Gauge Colemans Mitta 0.89 m 28/07/2021 18:45 188 ML/Day 28/07/2021 18:45 Not measured Not measured 9.3°C 28/07/2021 18:45 51.6 μS/cm 28/07/2021 18:45 Not measured Full data
River Gauge Colignan Murray 3.19 m 28/07/2021 18:45 16399 ML/Day 28/07/2021 18:45 Not measured Not measured 11.1°C 28/07/2021 18:45 112.8 μS/cm 28/07/2021 18:45 Not measured Full data
River Gauge Corowa Murray 1.97 m 28/07/2021 19:00 8171 ML/Day 28/07/2021 19:00 Not measured Not measured 9.9°C 28/07/2021 19:00 78.0 μS/cm 28/07/2021 19:00 Not measured Full data
Storage Dartmouth Dam Mitta 465.68 m 28/07/2021 7:45 Not measured 2661 GL 28/07/2021 7:45 Not measured Not measured Not measured Not measured Full data
Storage Dartmouth Dam Mitta 465.68 m 28/07/2021 7:45 Not measured 2661 GL 28/07/2021 7:45 Not measured Not measured Not measured Not measured Full data
River Gauge Doctors Point Murray 2.25 m 28/07/2021 19:00 5942 ML/Day 28/07/2021 19:00 Not measured Not measured 10.3°C 28/07/2021 19:00 90.7 μS/cm 28/07/2021 19:00 Not measured Full data
River Gauge Echuca Wharf Murray 88.16 m 28/07/2021 17:45 Not measured Not measured Not measured Not measured Not measured Not measured Full data
River Gauge Edward Escape Wakool -1.21 m 28/07/2021 18:45 0.00 ML/Day 2/06/2021 3:00 Not measured Not measured 10.5°C 28/07/2021 18:45 0.00 μS/cm 28/07/2021 18:45 Not measured Full data
River Gauge Edward River Offtake Murray 2.61 m 28/07/2021 18:45 1875 ML/Day 28/07/2021 18:45 Not measured Not measured 9.9°C 28/07/2021 18:45 57.3 μS/cm 28/07/2021 18:45 Not measured Full data
Weirs Euston Weir Downstream Murray 44.66 m 28/07/2021 18:45 17198 ML/Day 28/07/2021 18:45 Not measured Not measured 10.3°C 28/07/2021 18:45 107.2 μS/cm 28/07/2021 18:45 Not measured Full data
Weirs Euston Weir Upstream Murray 47.58 m 28/07/2021 8:45 Not measured 37 GL 28/07/2021 7:45 Not measured Not measured Not measured 145.9 mm 5/03/2020 9:00 Full data
River Gauge Flow to South Australia Murray Not measured Not measured Not measured 6585.0 ML/d28/07/2021 7:45 Not measured Not measured Not measured Full data
River Gauge Frenchman Creek Murray 27.1 m 28/07/2021 7:45 Not measured Not measured 8431.1 ML/d28/07/2021 7:45 Not measured Not measured Not measured Full data
River Gauge Gulpa Creek Offtake Murray 3.23 m 28/07/2021 18:45 928 ML/Day 28/07/2021 18:45 Not measured Not measured Not measured Not measured Not measured Full data
River Gauge Hinnomunjie Mitta 1.82 m 28/07/2021 18:45 5951 ML/Day 28/07/2021 18:45 Not measured Not measured 6.6°C 28/07/2021 18:45 25.9 μS/cm 28/07/2021 18:45 9.4 mm 27/07/2021 9:00 Full data
Storage Hume Dam Murray 188.58 m 28/07/2021 19:00 Not measured 2362 GL 28/07/2021 19:00 600.0 ML/d28/07/2021 8:00 Not measured Not measured 1.4 mm 28/07/2021 9:00 Full data
River Gauge Jingellic Murray 3.52 m 28/07/2021 18:45 23750 ML/Day 28/07/2021 18:45 Not measured Not measured 9.6°C 28/07/2021 18:45 57.7 μS/cm 28/07/2021 18:45 3.4 mm 28/07/2021 9:00 Full data
River Gauge Kerang Loddon 0.45 m 28/07/2021 18:45 370 ML/Day 28/07/2021 18:45 Not measured Not measured 10.8°C 28/07/2021 18:45 143.0 μS/cm 28/07/2021 18:45 Not measured Full data
River Gauge Lake Albert Murray 0.92 m 28/07/2021 5:45 Not measured 283 GL 24/07/2021 5:45 Not measured Not measured Not measured Not measured Full data
River Gauge Lake Alexandrina Murray 0.81 m 28/07/2021 5:45 Not measured 1648 GL 28/07/2021 5:45 Not measured Not measured 704.9 μS/cm 28/07/2021 16:45 Not measured Full data
Storage Lake Victoria Murray 25.71 m 28/07/2021 17:30 Not measured 525 GL 28/07/2021 17:30 Not measured 10.3°C 28/07/2021 17:30 150.8 μS/cm 28/07/2021 17:30 Not measured Full data
Weirs Lock 1 Downstream Murray 0.96 m 28/07/2021 17:30 Not measured Not measured 5978.2 ML/d28/07/2021 7:45 Not measured Not measured Not measured Full data
Weirs Lock 1 Upstream Murray 3.23 m 28/07/2021 17:30 Not measured Not measured Not measured 11.6°C 28/07/2021 17:30 279.9 μS/cm 28/07/2021 17:30 Not measured Full data
Weirs Lock 2 Downstream Murray 3.46 m 28/07/2021 17:30 Not measured Not measured Not measured Not measured Not measured Not measured Full data
Weirs Lock 2 Upstream Murray 6.35 m 28/07/2021 17:30 Not measured Not measured Not measured 11.3°C 28/07/2021 17:30 266.9 μS/cm 28/07/2021 17:30 Not measured Full data
Weirs Lock 3 Downstream Murray 6.63 m 28/07/2021 17:30 Not measured Not measured Not measured Not measured Not measured Not measured Full data
Weirs Lock 3 Upstream Murray 9.85 m 28/07/2021 17:30 Not measured Not measured Not measured Not measured Not measured Not measured Full data
Weirs Lock 4 Downstream Murray 10.45 m 28/07/2021 17:30 Not measured Not measured Not measured Not measured Not measured Not measured Full data
Weirs Lock 4 Upstream Murray 13.31 m 28/07/2021 17:30 Not measured Not measured Not measured Not measured Not measured Not measured Full data
Weirs Lock 5 Downstream Murray 13.46 m 28/07/2021 17:30 Not measured Not measured Not measured Not measured Not measured Not measured Full data
Weirs Lock 5 Upstream Murray 16.38 m 28/07/2021 17:30 Not measured Not measured Not measured 11.1°C 28/07/2021 17:30 163.0 μS/cm 28/07/2021 17:30 Not measured Full data
Weirs Lock 6 Downstream Murray 16.46 m 28/07/2021 17:30 Not measured Not measured Not measured Not measured Not measured Not measured Full data
Weirs Lock 6 Upstream Murray 19.29 m 28/07/2021 17:30 Not measured Not measured Not measured 11.0°C 28/07/2021 17:30 139.7 μS/cm 28/07/2021 17:30 Not measured Full data
Weirs Lock 7 Downstream Murray 20.35 m 28/07/2021 17:30 Not measured Not measured Not measured Not measured Not measured Not measured Full data
Weirs Lock 7 Upstream Murray 22.69 m 28/07/2021 17:30 Not measured Not measured Not measured 11.2°C 28/07/2021 17:30 136.4 μS/cm 28/07/2021 17:30 Not measured Full data
Weirs Lock 8 Upstream Murray 24.6 m 28/07/2021 17:30 Not measured Not measured Not measured 11.1°C 28/07/2021 17:30 139.6 μS/cm 28/07/2021 17:30 Not measured Full data
Weirs Lock 9 Downstream Murray 24.69 m 28/07/2021 17:30 Not measured Not measured Not measured Not measured Not measured Not measured Full data
Weirs Lock 9 Upstream Murray 27.55 m 28/07/2021 17:30 Not measured Not measured Not measured 10.9°C 28/07/2021 17:30 131.2 μS/cm 28/07/2021 17:30 Not measured Full data
River Gauge McCoy Bridge Goulburn 4.86 m 28/07/2021 18:45 8443 ML/Day 28/07/2021 18:45 Not measured Not measured 9.4°C 28/07/2021 18:45 125.4 μS/cm 28/07/2021 18:45 Not measured Full data
Storage Menindee Lakes Darling Not measured Not measured 1149 GL 28/07/2021 7:45 Not measured Not measured Not measured Not measured Full data
Weirs Mildura Weir downstream Murray 31.42 m 28/07/2021 18:45 Not measured Not measured Not measured 10.5°C 28/07/2021 18:45 119.9 μS/cm 28/07/2021 18:45 Not measured Full data
River Gauge Morgan Downstream Murray Not measured Not measured Not measured 2443.8 ML/d28/07/2021 17:30 Not measured 292.1 μS/cm 28/07/2021 16:45 Not measured Full data
River Gauge Mulwala Canal Murray Not measured Not measured Not measured 1500.0 ML/d28/07/2021 7:45 Not measured Not measured Not measured Full data
River Gauge Mundoo Barrage Murray 0.7 m 28/07/2021 7:45 Not measured Not measured Not measured Not measured Not measured Not measured Full data
River Gauge Murray Bridge Murray 0.82 m 28/07/2021 17:30 Not measured Not measured Not measured 11.4°C 28/07/2021 17:30 349.6 μS/cm 28/07/2021 17:30 Not measured Full data
River Gauge Peechelba Ovens 130.37 m 28/07/2021 18:45 19629 ML/Day 28/07/2021 18:45 Not measured Not measured 10.6°C 28/07/2021 18:45 51.7 μS/cm 28/07/2021 18:45 Not measured Full data
River Gauge Pinegrove Murray 2.87 m 28/07/2021 18:45 4095 ML/Day 28/07/2021 18:45 Not measured Not measured 8.7°C 28/07/2021 18:45 54.2 μS/cm 28/07/2021 18:45 1.2 mm 27/07/2021 9:00 Full data
River Gauge Redcliffs Murray Not measured Not measured Not measured Not measured Not measured 137.6 μS/cm 28/07/2021 7:45 Not measured Full data
River Gauge Rochester Campaspe 1.75 m 28/07/2021 18:45 106 ML/Day 28/07/2021 18:45 Not measured Not measured 10.1°C 28/07/2021 18:45 617.7 μS/cm 28/07/2021 18:45 0.00 mm 28/07/2021 9:00 Full data
River Gauge Rufus River Murray 20.36 m 28/07/2021 7:45 Not measured Not measured 709.0 ML/d28/07/2021 7:45 Not measured 179.0 μS/cm 28/07/2021 16:45 Not measured Full data
Weirs Steven's Weir Downstream Edward 2.18 m 28/07/2021 18:45 2271 ML/Day 28/07/2021 18:45 Not measured Not measured 10.2°C 28/07/2021 18:45 43.3 μS/cm 28/07/2021 18:45 Not measured Full data
Weirs Steven's Weir Upstream Edward 4.52 m 28/07/2021 18:45 Not measured Not measured Not measured Not measured Not measured Not measured Full data
River Gauge Stoney Crossing Murray 1.3 m 28/07/2021 18:45 250 ML/Day 28/07/2021 18:45 Not measured 234.4 ML/d28/07/2021 7:45 10.7°C 28/07/2021 18:45 342.1 μS/cm 28/07/2021 18:45 Not measured Full data
River Gauge Swan Hill Murray 2.3 m 28/07/2021 18:45 13286 ML/Day 28/07/2021 18:45 Not measured Not measured 10.5°C 28/07/2021 18:45 78.4 μS/cm 28/07/2021 18:45 Not measured Full data
River Gauge Tallandoon Mitta 2.35 m 28/07/2021 18:45 3867 ML/Day 28/07/2021 18:45 Not measured Not measured 9.7°C 28/07/2021 18:45 33.0 μS/cm 28/07/2021 18:45 Not measured Full data
River Gauge Tallandoon Mitta 2.35 m 28/07/2021 18:45 3867 ML/Day 28/07/2021 18:45 Not measured Not measured 9.7°C 28/07/2021 18:45 33.0 μS/cm 28/07/2021 18:45 Not measured Full data
River Gauge Tauwitchere Barrage Murray 0.7 m 28/07/2021 17:30 Not measured Not measured Not measured Not measured Not measured Not measured Full data
River Gauge Tocumwal Murray 3.72 m 28/07/2021 18:45 22946 ML/Day 28/07/2021 18:45 Not measured Not measured 9.8°C 28/07/2021 18:45 54.2 μS/cm 28/07/2021 18:45 Not measured Full data
River Gauge Torrumbarry Headworks Murray 83.72 m 28/07/2021 18:45 Not measured Not measured 366.3 ML/d28/07/2021 18:45 Not measured Not measured Not measured Full data
Weirs Torrumbarry Weir Downstream Murray 4.5 m 28/07/2021 18:45 15686 ML/Day 28/07/2021 18:45 Not measured Not measured 9.7°C 28/07/2021 18:45 104.8 μS/cm 28/07/2021 18:45 Not measured Full data
Weirs Torrumbarry Weir Upstream Murray 85.79 m 28/07/2021 18:15 Not measured 35 GL 28/07/2021 8:45 Not measured 9.4°C 28/07/2021 8:45 102.3 μS/cm 28/07/2021 16:45 0.00 mm 28/07/2021 9:00 Full data
River Gauge Wakool Canal Wakool 0.61 m 28/07/2021 17:45 Not measured Not measured 350.8 ML/d28/07/2021 8:45 Not measured Not measured Not measured Full data
River Gauge Wakool Junction Murray 4.19 m 28/07/2021 18:45 13904 ML/Day 28/07/2021 18:45 Not measured Not measured 10.1°C 28/07/2021 18:45 78.0 μS/cm 28/07/2021 18:45 Not measured Full data
River Gauge Weir 32 Upstream Darling 1.52 m 28/07/2021 18:45 490 ML/Day 28/07/2021 18:45 Not measured Not measured 11.4°C 28/07/2021 18:45 309.5 μS/cm 28/07/2021 18:45 Not measured Full data
Weirs Wentworth Weir Murray 28.28 m 28/07/2021 18:45 Not measured Not measured 14723.9 ML/d28/07/2021 8:45 Not measured 127.0 μS/cm 28/07/2021 7:45 Not measured Full data
River Gauge Wilcania Darling 4.16 m 28/07/2021 18:45 8348 ML/Day 28/07/2021 18:45 Not measured Not measured 11.6°C 28/07/2021 18:45 356.2 μS/cm 28/07/2021 18:45 Not measured Full data
River Gauge Yarrawonga Main Channel Murray 122.86 m 28/07/2021 18:45 Not measured Not measured 71.9 ML/d28/07/2021 18:45 Not measured Not measured Not measured Full data
Weirs Yarrawonga Weir Downstream Murray 3.42 m 28/07/2021 19:00 26694 ML/Day 28/07/2021 19:00 Not measured Not measured 9.9°C 28/07/2021 19:00 60.2 μS/cm 28/07/2021 19:00 Not measured Full data
Weirs Yarrawonga Weir Upstream Murray 124.7 m 28/07/2021 18:45 Not measured Not measured Not measured Not measured Not measured 0.8 mm 28/07/2021 9:00 Full data